Time;durP1;ratioP1;P1;durP2;ratioP2;P2;SDS_P1;SDS_P2;PMS_P1;PMS_P2;Temp;Humidity;BMP_temperature;BMP_pressure;BME280_temperature;BME280_humidity;BME280_pressure;Samples;Min_cycle;Max_cycle;Signal;HPM_P1;HPM_P2
2023/04/18 00:02:18;;;;;;;1.75;1.65;;;21.40;67.80;;;;;;5060164;28;20195;-63
2023/04/18 00:04:45;;;;;;;2.05;1.95;;;21.40;67.90;;;;;;5061819;28;20196;-62
2023/04/18 00:07:14;;;;;;;2.33;2.13;;;21.40;67.90;;;;;;5046792;28;20291;-63
2023/04/18 00:09:41;;;;;;;2.38;2.17;;;21.30;67.90;;;;;;5051510;28;20646;-63
2023/04/18 00:12:08;;;;;;;2.20;2.10;;;21.30;67.90;;;;;;5048763;28;20200;-62
2023/04/18 00:14:36;;;;;;;1.90;1.75;;;21.30;67.90;;;;;;5055573;28;20195;-60
2023/04/18 00:17:03;;;;;;;3.15;2.08;;;21.30;67.90;;;;;;5059118;28;20195;-63
2023/04/18 00:19:30;;;;;;;2.30;1.95;;;21.30;67.90;;;;;;5062911;28;20199;-60
2023/04/18 00:21:57;;;;;;;2.00;1.85;;;21.30;67.90;;;;;;5054301;28;20298;-61
2023/04/18 00:24:25;;;;;;;1.80;1.70;;;21.30;68.00;;;;;;5057430;28;20248;-61
2023/04/18 00:26:52;;;;;;;1.95;1.85;;;21.20;67.80;;;;;;5047092;28;20199;-61
2023/04/18 00:29:18;;;;;;;1.63;1.52;;;21.20;67.90;;;;;;5048607;28;20250;-61
2023/04/18 00:31:45;;;;;;;1.98;1.75;;;21.20;67.90;;;;;;5043638;28;20218;-61
2023/04/18 00:34:11;;;;;;;1.95;1.85;;;21.20;67.90;;;;;;5058848;28;20236;-61
2023/04/18 00:36:38;;;;;;;1.80;1.70;;;21.20;67.90;;;;;;5057713;28;20610;-61
2023/04/18 00:39:05;;;;;;;1.85;1.75;;;21.20;67.90;;;;;;5041633;28;20253;-60
2023/04/18 00:41:33;;;;;;;1.92;1.83;;;21.20;68.00;;;;;;5050071;28;20222;-61
2023/04/18 00:44:00;;;;;;;2.20;2.00;;;21.20;67.90;;;;;;5047171;28;20807;-63
2023/04/18 00:46:26;;;;;;;1.50;1.40;;;21.20;68.10;;;;;;5052447;28;20202;-60
2023/04/18 00:48:53;;;;;;;1.80;1.70;;;21.10;67.90;;;;;;5058612;28;20188;-62
2023/04/18 00:51:21;;;;;;;1.55;1.45;;;21.10;68.00;;;;;;5054406;28;20277;-62
2023/04/18 00:53:47;;;;;;;2.40;2.20;;;21.10;67.90;;;;;;5055687;28;20244;-63
2023/04/18 00:56:14;;;;;;;2.08;1.83;;;21.10;68.00;;;;;;5057593;28;20194;-62
2023/04/18 00:58:42;;;;;;;2.28;1.55;;;21.10;68.00;;;;;;5050887;28;20198;-63
2023/04/18 01:01:09;;;;;;;2.75;2.03;;;21.10;68.00;;;;;;5052297;28;20218;-62
2023/04/18 01:03:38;;;;;;;1.90;1.80;;;21.10;68.00;;;;;;5060415;28;20659;-62
2023/04/18 01:06:05;;;;;;;2.28;1.95;;;21.10;68.10;;;;;;5046973;28;20209;-63
2023/04/18 01:08:31;;;;;;;1.80;1.70;;;21.00;67.90;;;;;;5046714;28;20594;-62
2023/04/18 01:10:58;;;;;;;1.95;1.70;;;21.00;68.00;;;;;;5054125;28;20702;-62
2023/04/18 01:13:25;;;;;;;1.88;1.77;;;21.00;68.10;;;;;;5050304;28;20654;-62
2023/04/18 01:15:54;;;;;;;1.98;1.83;;;21.00;68.10;;;;;;5051576;28;20211;-63
2023/04/18 01:18:23;;;;;;;1.55;1.45;;;21.00;68.10;;;;;;5055812;28;20203;-62
2023/04/18 01:20:51;;;;;;;1.90;1.63;;;21.10;68.20;;;;;;5052808;28;20196;-63
2023/04/18 01:23:19;;;;;;;1.55;1.45;;;21.10;68.20;;;;;;5040929;28;20219;-63
2023/04/18 01:25:49;;;;;;;1.83;1.73;;;21.10;68.20;;;;;;5050424;28;20196;-63
2023/04/18 01:28:16;;;;;;;1.60;1.50;;;21.00;68.10;;;;;;5047627;28;20203;-62
2023/04/18 01:30:43;;;;;;;1.75;1.65;;;21.00;68.10;;;;;;5043719;28;20222;-63
2023/04/18 01:33:09;;;;;;;2.05;1.90;;;21.10;68.20;;;;;;5050063;28;20597;-62
2023/04/18 01:35:36;;;;;;;1.85;1.75;;;21.00;68.00;;;;;;5046421;28;20218;-62
2023/04/18 01:38:03;;;;;;;2.55;2.13;;;21.00;67.90;;;;;;5051115;28;20206;-62
2023/04/18 01:40:30;;;;;;;2.15;2.03;;;21.00;68.00;;;;;;5053215;28;20196;-63
2023/04/18 01:42:58;;;;;;;1.88;1.77;;;21.00;68.00;;;;;;5045768;28;20211;-62
2023/04/18 01:45:25;;;;;;;2.60;2.40;;;21.00;68.00;;;;;;5052397;28;20200;-62
2023/04/18 01:47:52;;;;;;;1.90;1.80;;;21.00;68.80;;;;;;5052521;28;20809;-62
2023/04/18 01:50:19;;;;;;;1.73;1.63;;;21.00;68.10;;;;;;5053846;28;20821;-62
2023/04/18 01:52:45;;;;;;;2.13;1.92;;;20.90;68.00;;;;;;5055304;28;20199;-63
2023/04/18 01:55:12;;;;;;;1.60;1.50;;;20.90;67.90;;;;;;5050613;28;20769;-62
2023/04/18 01:57:39;;;;;;;2.00;1.90;;;21.00;68.10;;;;;;5049733;28;20264;-62
2023/04/18 02:00:08;;;;;;;1.98;1.80;;;20.90;67.90;;;;;;5042459;28;20675;-63
2023/04/18 02:02:35;;;;;;;1.90;1.70;;;20.90;68.00;;;;;;5057925;28;20659;-62
2023/04/18 02:05:02;;;;;;;2.35;2.15;;;20.90;67.90;;;;;;5051900;28;20204;-62
2023/04/18 02:07:28;;;;;;;2.15;1.95;;;20.90;67.90;;;;;;5043487;28;20294;-62
2023/04/18 02:09:55;;;;;;;1.60;1.50;;;20.90;68.00;;;;;;5052410;28;20191;-62
2023/04/18 02:12:22;;;;;;;2.28;1.50;;;20.90;68.00;;;;;;5057114;28;20227;-63
2023/04/18 02:14:52;;;;;;;1.83;1.73;;;20.90;68.00;;;;;;5049056;28;20192;-62
2023/04/18 02:17:22;;;;;;;1.92;1.70;;;20.90;68.10;;;;;;5050387;28;20199;-62
2023/04/18 02:19:49;;;;;;;2.05;1.90;;;20.80;67.90;;;;;;5050083;28;20202;-62
2023/04/18 02:22:16;;;;;;;1.85;1.75;;;20.80;67.90;;;;;;5052980;28;20207;-63
2023/04/18 02:24:43;;;;;;;2.13;1.95;;;20.90;68.10;;;;;;5058674;28;20199;-64
2023/04/18 02:27:10;;;;;;;1.45;1.35;;;20.80;67.90;;;;;;5046615;28;20250;-63
2023/04/18 02:29:37;;;;;;;1.90;1.77;;;20.80;68.10;;;;;;5047685;28;20203;-62
2023/04/18 02:32:04;;;;;;;1.70;1.55;;;20.80;68.00;;;;;;5047125;28;20265;-62
2023/04/18 02:34:32;;;;;;;1.75;1.60;;;20.80;68.10;;;;;;5057122;28;20280;-62
2023/04/18 02:36:59;;;;;;;1.67;1.58;;;20.80;68.10;;;;;;5052053;28;20264;-62
2023/04/18 02:39:26;;;;;;;1.95;1.75;;;20.80;68.00;;;;;;5061334;28;20302;-62
2023/04/18 02:41:52;;;;;;;1.70;1.60;;;20.80;68.00;;;;;;5048126;28;20299;-62
2023/04/18 02:44:19;;;;;;;1.60;1.50;;;20.80;68.10;;;;;;5044980;28;20215;-62
2023/04/18 02:46:45;;;;;;;1.70;1.60;;;20.80;68.90;;;;;;5061053;28;20194;-62
2023/04/18 02:49:12;;;;;;;1.80;1.70;;;20.80;68.00;;;;;;5055944;28;20203;-62
2023/04/18 02:51:40;;;;;;;1.75;1.65;;;20.70;67.90;;;;;;5049456;28;20226;-62
2023/04/18 02:54:07;;;;;;;2.10;1.90;;;20.80;68.00;;;;;;5057353;28;20243;-62
2023/04/18 02:56:38;;;;;;;2.00;1.58;;;20.70;67.90;;;;;;5050323;28;20559;-61
2023/04/18 02:59:05;;;;;;;1.65;1.55;;;20.70;68.10;;;;;;5052496;28;20777;-62
2023/04/18 03:01:32;;;;;;;2.15;1.90;;;20.70;68.10;;;;;;5048597;28;20269;-62
2023/04/18 03:03:59;;;;;;;1.42;1.33;;;20.70;68.20;;;;;;5047362;28;20202;-62
2023/04/18 03:06:26;;;;;;;1.50;1.23;;;20.70;68.10;;;;;;5055758;28;20666;-62
2023/04/18 03:08:54;;;;;;;2.10;1.90;;;20.70;68.10;;;;;;5056554;28;20196;-62
2023/04/18 03:11:21;;;;;;;1.70;1.60;;;20.70;68.10;;;;;;5050321;28;20230;-62
2023/04/18 03:13:47;;;;;;;2.05;1.88;;;20.70;68.10;;;;;;5051519;28;20211;-60
2023/04/18 03:16:15;;;;;;;1.40;1.30;;;20.70;68.10;;;;;;5049931;28;20199;-62
2023/04/18 03:18:41;;;;;;;2.38;1.70;;;20.70;68.10;;;;;;5055707;28;20198;-62
2023/04/18 03:21:08;;;;;;;1.45;1.35;;;20.70;68.00;;;;;;5054379;28;20199;-62
2023/04/18 03:23:35;;;;;;;1.88;1.67;;;20.70;68.10;;;;;;5043628;28;22589;-62
2023/04/18 03:26:05;;;;;;;1.50;1.40;;;20.70;68.10;;;;;;5052677;28;20199;-62
2023/04/18 03:28:31;;;;;;;1.80;1.60;;;20.70;67.90;;;;;;5061523;28;20210;-63
2023/04/18 03:30:59;;;;;;;1.50;1.40;;;20.70;68.00;;;;;;5051050;28;20219;-62
2023/04/18 03:33:27;;;;;;;2.05;1.85;;;20.70;68.10;;;;;;5055065;28;20278;-62
2023/04/18 03:35:54;;;;;;;1.42;1.33;;;20.70;68.10;;;;;;5048408;28;20217;-62
2023/04/18 03:38:21;;;;;;;1.48;1.27;;;20.70;68.00;;;;;;5050249;28;20203;-63
2023/04/18 03:40:47;;;;;;;1.52;1.38;;;20.70;68.10;;;;;;5064542;28;20274;-62
2023/04/18 03:43:15;;;;;;;1.70;1.60;;;20.60;67.90;;;;;;5048634;28;20290;-62
2023/04/18 03:45:43;;;;;;;1.85;1.27;;;20.60;68.00;;;;;;5054421;28;20199;-59
2023/04/18 03:48:09;;;;;;;1.75;1.65;;;20.60;68.00;;;;;;5059388;28;20192;-62
2023/04/18 03:50:36;;;;;;;1.42;1.33;;;20.60;68.00;;;;;;5056044;28;20199;-62
2023/04/18 03:53:03;;;;;;;2.28;2.08;;;20.60;68.00;;;;;;5057463;28;20203;-61
2023/04/18 03:55:29;;;;;;;1.83;1.73;;;20.60;68.10;;;;;;5055330;28;20200;-61
2023/04/18 03:57:57;;;;;;;1.60;1.50;;;20.60;68.00;;;;;;5060884;28;21621;-62
2023/04/18 04:00:25;;;;;;;1.60;1.50;;;20.60;68.10;;;;;;5039579;28;20208;-62
2023/04/18 04:02:52;;;;;;;1.67;1.58;;;20.60;68.00;;;;;;5050359;28;20206;-62
2023/04/18 04:05:19;;;;;;;1.70;1.60;;;20.60;68.10;;;;;;5053008;28;20257;-62
2023/04/18 04:07:46;;;;;;;2.35;1.80;;;20.60;68.00;;;;;;5056184;28;20559;-62
2023/04/18 04:10:12;;;;;;;2.20;2.00;;;20.60;68.10;;;;;;5050373;28;20245;-62
2023/04/18 04:12:39;;;;;;;1.70;1.60;;;20.60;68.10;;;;;;5048258;28;20277;-62
2023/04/18 04:15:06;;;;;;;1.90;1.80;;;20.60;68.10;;;;;;5055805;28;20413;-62
2023/04/18 04:17:35;;;;;;;1.60;1.50;;;20.60;68.10;;;;;;5049675;28;20765;-62
2023/04/18 04:20:02;;;;;;;1.50;1.40;;;20.60;68.10;;;;;;5050967;28;20246;-62
2023/04/18 04:22:29;;;;;;;1.67;1.58;;;20.60;68.20;;;;;;5052751;28;20223;-62
2023/04/18 04:24:56;;;;;;;2.13;1.70;;;20.50;68.10;;;;;;5052621;28;20606;-62
2023/04/18 04:27:23;;;;;;;1.60;1.50;;;20.50;68.00;;;;;;5053718;28;20280;-62
2023/04/18 04:29:51;;;;;;;1.80;1.50;;;20.50;68.10;;;;;;5041761;28;20201;-62
2023/04/18 04:32:19;;;;;;;1.95;1.85;;;20.50;68.10;;;;;;5039401;28;20215;-62
2023/04/18 04:34:47;;;;;;;1.85;1.75;;;20.50;68.10;;;;;;5045524;28;20192;-61
2023/04/18 04:37:13;;;;;;;1.40;1.30;;;20.50;68.10;;;;;;5054566;28;20247;-62
2023/04/18 04:39:40;;;;;;;1.65;1.55;;;20.50;68.10;;;;;;5056626;28;20191;-62
2023/04/18 04:42:08;;;;;;;1.55;1.45;;;20.50;68.10;;;;;;5044204;28;20204;-62
2023/04/18 04:44:36;;;;;;;1.55;1.45;;;20.50;68.20;;;;;;5050988;28;20573;-62
2023/04/18 04:47:02;;;;;;;1.50;1.40;;;20.50;68.10;;;;;;5053246;28;20682;-62
2023/04/18 04:49:30;;;;;;;1.42;1.33;;;20.50;68.10;;;;;;5048742;28;20191;-62
2023/04/18 04:51:58;;;;;;;1.65;1.55;;;20.50;68.20;;;;;;5056068;28;20227;-61
2023/04/18 04:54:24;;;;;;;1.42;1.33;;;20.50;68.20;;;;;;5053867;28;20200;-61
2023/04/18 04:56:51;;;;;;;1.45;1.35;;;20.40;68.10;;;;;;5057711;28;20249;-61
2023/04/18 04:59:18;;;;;;;1.85;1.75;;;20.40;68.10;;;;;;5056755;28;20202;-62
2023/04/18 05:01:45;;;;;;;1.20;1.08;;;20.40;68.20;;;;;;5064369;28;20198;-62
2023/04/18 05:04:12;;;;;;;1.45;1.35;;;20.40;68.20;;;;;;5049421;28;20195;-62
2023/04/18 05:06:38;;;;;;;2.38;2.17;;;20.40;68.10;;;;;;5058995;28;20290;-62
2023/04/18 05:09:06;;;;;;;2.08;1.88;;;20.40;68.30;;;;;;5055584;28;20195;-62
2023/04/18 05:11:33;;;;;;;1.50;1.40;;;20.40;68.30;;;;;;5058216;28;20230;-62
2023/04/18 05:14:00;;;;;;;1.50;1.40;;;20.40;68.40;;;;;;5049569;28;20242;-61
2023/04/18 05:16:27;;;;;;;1.63;1.40;;;20.40;68.40;;;;;;5049273;28;20195;-62
2023/04/18 05:18:53;;;;;;;1.40;1.30;;;20.50;68.50;;;;;;5060758;28;20415;-62
2023/04/18 05:21:20;;;;;;;1.60;1.50;;;20.50;68.40;;;;;;5058160;28;20663;-62
2023/04/18 05:23:46;;;;;;;1.45;1.35;;;20.50;68.40;;;;;;5048006;28;20367;-62
2023/04/18 05:26:14;;;;;;;1.55;1.45;;;20.50;68.40;;;;;;5050744;28;20202;-62
2023/04/18 05:28:42;;;;;;;1.80;1.70;;;20.60;68.50;;;;;;5062637;28;20241;-62
2023/04/18 05:31:08;;;;;;;1.42;1.33;;;20.60;68.40;;;;;;5045071;28;20198;-61
2023/04/18 05:33:35;;;;;;;3.15;1.80;;;20.60;68.40;;;;;;5045133;28;20203;-62
2023/04/18 05:36:02;;;;;;;1.90;1.80;;;20.60;68.30;;;;;;5049421;28;20250;-62
2023/04/18 05:38:28;;;;;;;1.50;1.40;;;20.60;68.20;;;;;;5057206;28;20206;-62
2023/04/18 05:40:58;;;;;;;2.00;1.90;;;20.60;68.40;;;;;;5055693;28;20194;-61
2023/04/18 05:43:27;;;;;;;1.38;1.27;;;20.60;68.40;;;;;;5058323;28;20571;-62
2023/04/18 05:45:53;;;;;;;1.80;1.70;;;20.60;68.40;;;;;;5056935;28;20799;-62
2023/04/18 05:48:21;;;;;;;1.85;1.70;;;20.70;68.40;;;;;;5060103;28;20198;-62
2023/04/18 05:50:48;;;;;;;1.63;1.52;;;20.60;68.20;;;;;;5062204;28;20202;-62
2023/04/18 05:53:15;;;;;;;1.70;1.60;;;20.60;68.20;;;;;;5052152;28;20261;-62
2023/04/18 05:55:42;;;;;;;1.55;1.45;;;20.60;68.20;;;;;;5046586;28;20198;-62
2023/04/18 05:58:08;;;;;;;1.95;1.75;;;20.70;68.40;;;;;;5060748;28;20585;-62
2023/04/18 06:00:36;;;;;;;1.58;1.40;;;20.60;68.20;;;;;;5039362;28;20198;-62
2023/04/18 06:03:03;;;;;;;1.48;1.38;;;20.70;68.40;;;;;;5048562;28;20199;-62
2023/04/18 06:05:30;;;;;;;1.70;1.60;;;20.70;68.40;;;;;;5054426;28;20199;-62
2023/04/18 06:07:57;;;;;;;1.75;1.65;;;20.70;68.30;;;;;;5051953;28;20295;-62
2023/04/18 06:10:23;;;;;;;1.50;1.40;;;20.80;68.50;;;;;;5047269;28;20628;-62
2023/04/18 06:12:50;;;;;;;1.60;1.50;;;20.80;68.50;;;;;;5052142;28;20285;-62
2023/04/18 06:15:17;;;;;;;1.50;1.40;;;20.80;68.40;;;;;;5055098;28;20353;-62
2023/04/18 06:17:45;;;;;;;1.75;1.20;;;20.80;68.40;;;;;;5060938;28;20707;-61
2023/04/18 06:20:12;;;;;;;1.60;1.50;;;20.90;68.50;;;;;;5054919;28;20195;-62
2023/04/18 06:22:38;;;;;;;1.60;1.50;;;20.90;68.40;;;;;;5059648;28;20277;-62
2023/04/18 06:25:07;;;;;;;1.60;1.42;;;20.90;68.40;;;;;;5049436;28;20195;-62
2023/04/18 06:27:34;;;;;;;1.50;1.40;;;20.90;68.40;;;;;;5049251;28;20606;-62
2023/04/18 06:30:01;;;;;;;1.42;1.33;;;20.90;68.40;;;;;;5054517;28;20195;-61
2023/04/18 06:32:27;;;;;;;1.40;1.30;;;20.90;68.30;;;;;;5063239;28;20222;-62
2023/04/18 06:34:55;;;;;;;1.42;1.25;;;20.90;68.30;;;;;;5064242;28;20195;-62
2023/04/18 06:37:22;;;;;;;1.85;1.75;;;20.90;68.20;;;;;;5050911;28;20256;-62
2023/04/18 06:39:49;;;;;;;1.55;1.30;;;21.00;68.30;;;;;;5052830;28;20220;-62
2023/04/18 06:42:15;;;;;;;1.40;1.30;;;21.00;68.30;;;;;;5062772;28;20562;-62
2023/04/18 06:44:42;;;;;;;1.80;1.70;;;21.00;68.30;;;;;;5054457;28;21549;-62
2023/04/18 06:47:09;;;;;;;1.65;1.55;;;21.00;68.30;;;;;;5056977;28;20202;-62
2023/04/18 06:49:36;;;;;;;1.60;1.50;;;21.00;68.30;;;;;;5060510;28;20198;-62
2023/04/18 06:52:04;;;;;;;1.30;1.20;;;21.00;68.20;;;;;;5059553;28;20218;-62
2023/04/18 06:54:30;;;;;;;1.30;1.20;;;21.00;68.20;;;;;;5065119;28;20188;-62
2023/04/18 06:56:57;;;;;;;1.60;1.50;;;21.00;68.10;;;;;;5063300;28;20218;-62
2023/04/18 06:59:24;;;;;;;2.10;1.15;;;21.00;68.20;;;;;;5057558;28;20262;-62
2023/04/18 07:01:51;;;;;;;1.60;1.50;;;21.00;68.10;;;;;;5051379;28;20195;-62
2023/04/18 07:04:17;;;;;;;1.50;1.40;;;21.00;68.10;;;;;;5053756;28;20199;-62
2023/04/18 07:06:44;;;;;;;1.50;1.40;;;21.10;68.20;;;;;;5060350;28;20469;-62
2023/04/18 07:09:12;;;;;;;1.48;1.38;;;21.10;68.20;;;;;;5048446;28;20195;-62
2023/04/18 07:11:39;;;;;;;1.90;1.80;;;21.10;68.20;;;;;;5061366;28;20264;-62
2023/04/18 07:14:06;;;;;;;1.58;1.48;;;21.10;68.10;;;;;;5058783;28;20200;-62
2023/04/18 07:16:32;;;;;;;1.50;1.38;;;21.10;68.10;;;;;;5057013;28;20256;-62
2023/04/18 07:18:59;;;;;;;1.85;1.67;;;21.10;68.10;;;;;;5051426;28;20203;-62
2023/04/18 07:21:26;;;;;;;1.50;1.25;;;21.10;68.10;;;;;;5059862;28;20260;-62
2023/04/18 07:23:53;;;;;;;1.38;1.27;;;21.10;68.00;;;;;;5052096;28;20204;-62
2023/04/18 07:26:21;;;;;;;1.33;1.23;;;21.10;68.00;;;;;;5047331;28;20199;-62
2023/04/18 07:28:49;;;;;;;1.38;1.20;;;21.20;68.10;;;;;;5066576;28;20456;-62
2023/04/18 07:31:15;;;;;;;1.45;1.35;;;21.10;68.00;;;;;;5058005;28;20709;-62
2023/04/18 07:33:43;;;;;;;1.38;1.27;;;21.10;68.00;;;;;;5055414;28;20736;-62
2023/04/18 07:36:09;;;;;;;1.52;1.42;;;21.20;68.10;;;;;;5055879;28;20195;-62
2023/04/18 07:38:36;;;;;;;2.05;1.60;;;21.20;68.10;;;;;;5058644;28;20199;-62
2023/04/18 07:41:03;;;;;;;1.40;1.30;;;21.20;68.10;;;;;;5055599;28;20577;-62
2023/04/18 07:43:31;;;;;;;1.60;1.50;;;21.20;68.00;;;;;;5052977;28;20211;-62
2023/04/18 07:45:58;;;;;;;2.50;1.35;;;21.20;68.00;;;;;;5050561;28;20195;-62
2023/04/18 07:48:25;;;;;;;2.55;1.40;;;21.20;68.30;;;;;;5055273;28;20207;-62
2023/04/18 07:50:52;;;;;;;1.70;1.60;;;21.20;68.30;;;;;;5054562;28;20228;-62
2023/04/18 07:53:19;;;;;;;1.63;1.52;;;21.20;68.40;;;;;;5058382;28;20218;-62
2023/04/18 07:55:46;;;;;;;2.00;1.73;;;21.20;68.40;;;;;;5063547;28;20192;-62
2023/04/18 07:58:13;;;;;;;1.95;1.85;;;21.20;68.10;;;;;;5056955;28;20198;-62
2023/04/18 08:00:43;;;;;;;1.60;1.45;;;21.20;67.80;;;;;;5056341;28;20288;-62
2023/04/18 08:03:10;;;;;;;2.58;1.60;;;21.20;67.70;;;;;;5056721;28;20198;-62
2023/04/18 08:05:38;;;;;;;2.35;1.30;;;21.20;67.60;;;;;;5055403;28;20273;-62
2023/04/18 08:08:06;;;;;;;3.58;1.85;;;21.20;67.60;;;;;;5061555;28;20280;-62
2023/04/18 08:10:32;;;;;;;2.85;1.50;;;21.20;67.60;;;;;;5051751;28;20197;-63
2023/04/18 08:12:59;;;;;;;2.30;1.70;;;21.20;67.80;;;;;;5048593;28;20572;-62
2023/04/18 08:15:27;;;;;;;1.70;1.52;;;21.20;68.00;;;;;;5046593;28;20298;-62
2023/04/18 08:17:56;;;;;;;2.10;1.65;;;21.30;69.30;;;;;;5046430;28;20610;-62
2023/04/18 08:20:23;;;;;;;3.83;1.30;;;21.30;68.70;;;;;;5047356;28;20262;-60
2023/04/18 08:22:50;;;;;;;1.30;1.17;;;21.30;68.90;;;;;;5049498;28;20227;-62
2023/04/18 08:25:17;;;;;;;1.95;1.75;;;21.30;69.00;;;;;;5053430;28;20199;-62
2023/04/18 08:27:43;;;;;;;1.88;1.77;;;21.30;69.10;;;;;;5039593;28;20195;-62
2023/04/18 08:30:11;;;;;;;7.07;1.55;;;21.30;68.90;;;;;;5037274;28;20756;-62
2023/04/18 08:32:38;;;;;;;2.03;1.83;;;21.30;68.80;;;;;;5042338;28;20215;-60
2023/04/18 08:35:07;;;;;;;3.20;1.85;;;21.20;68.70;;;;;;5045183;28;20204;-62
2023/04/18 08:37:34;;;;;;;1.80;1.63;;;21.20;68.60;;;;;;5058121;28;23393;-62
2023/04/18 08:40:01;;;;;;;2.00;1.75;;;21.20;68.60;;;;;;5043863;28;20195;-60
2023/04/18 08:42:29;;;;;;;1.60;1.50;;;21.20;68.60;;;;;;5047091;28;20558;-62
2023/04/18 08:44:58;;;;;;;2.53;1.63;;;21.20;68.50;;;;;;5046009;28;20192;-63
2023/04/18 08:47:25;;;;;;;2.08;1.75;;;21.20;68.40;;;;;;5057446;28;20644;-62
2023/04/18 08:49:52;;;;;;;1.60;1.50;;;21.20;68.40;;;;;;5063283;28;20260;-62
2023/04/18 08:52:22;;;;;;;1.92;1.55;;;21.20;68.20;;;;;;5051750;28;20191;-62
2023/04/18 08:54:50;;;;;;;1.70;1.60;;;21.20;68.20;;;;;;5052093;28;20669;-62
2023/04/18 08:57:22;;;;;;;1.80;1.70;;;21.20;68.20;;;;;;5050060;28;20245;-62
2023/04/18 08:59:49;;;;;;;1.88;1.77;;;21.20;68.10;;;;;;5051796;28;20206;-62
2023/04/18 09:02:18;;;;;;;1.95;1.85;;;21.20;68.10;;;;;;5058312;28;20276;-63
2023/04/18 09:04:47;;;;;;;3.40;1.90;;;21.30;68.20;;;;;;5058552;28;20202;-63
2023/04/18 09:07:15;;;;;;;3.20;1.65;;;21.20;68.10;;;;;;5053204;28;20200;-62
2023/04/18 09:09:47;;;;;;;2.40;1.48;;;21.30;68.20;;;;;;5056558;28;20191;-62
2023/04/18 09:12:16;;;;;;;1.77;1.67;;;21.30;68.20;;;;;;5056731;28;20719;-62
2023/04/18 09:14:44;;;;;;;1.25;1.15;;;21.30;68.20;;;;;;5057599;28;20729;-62
2023/04/18 09:17:13;;;;;;;2.65;1.60;;;21.30;68.10;;;;;;5067328;28;20202;-62
2023/04/18 09:19:47;;;;;;;2.22;1.75;;;21.40;68.20;;;;;;5059164;28;20196;-62
2023/04/18 09:22:14;;;;;;;1.70;1.60;;;21.40;68.20;;;;;;5056275;28;20217;-62
2023/04/18 09:24:53;;;;;;;2.53;1.60;;;21.40;68.30;;;;;;5056498;28;20554;-62
2023/04/18 09:27:21;;;;;;;1.70;1.50;;;21.40;68.20;;;;;;5050293;28;21208;-62
2023/04/18 09:29:50;;;;;;;3.88;1.83;;;21.40;68.20;;;;;;5059215;28;20290;-62
2023/04/18 09:32:25;;;;;;;2.33;1.60;;;21.40;68.20;;;;;;5058201;28;20664;-62
2023/04/18 09:34:56;;;;;;;2.08;1.80;;;21.40;68.20;;;;;;5052396;28;20286;-62
2023/04/18 09:37:24;;;;;;;7.22;2.50;;;21.40;68.40;;;;;;5051907;28;20293;-61
2023/04/18 09:39:52;;;;;;;2.15;1.95;;;21.40;68.70;;;;;;5049273;28;20199;-56
2023/04/18 09:42:19;;;;;;;4.28;1.83;;;21.40;68.60;;;;;;5063852;28;20712;-54
2023/04/18 09:45:02;;;;;;;1.77;1.63;;;21.40;68.60;;;;;;5058223;28;20198;-58
2023/04/18 09:47:29;;;;;;;2.20;1.80;;;21.40;68.70;;;;;;5053613;28;20214;-57
2023/04/18 09:49:56;;;;;;;2.22;2.03;;;21.40;68.80;;;;;;5054160;28;20196;-61
2023/04/18 09:52:24;;;;;;;2.17;1.98;;;21.40;68.80;;;;;;5060396;28;20211;-62
2023/04/18 09:54:59;;;;;;;2.55;2.35;;;21.40;68.60;;;;;;5049967;28;20307;-62
2023/04/18 09:57:27;;;;;;;2.05;1.75;;;21.40;68.80;;;;;;5052995;28;20681;-62
2023/04/18 10:00:09;;;;;;;1.90;1.80;;;21.40;68.70;;;;;;5053154;28;20233;-63
2023/04/18 10:02:47;;;;;;;2.35;2.00;;;21.40;68.70;;;;;;5053134;28;20203;-62
2023/04/18 10:05:15;;;;;;;2.90;1.35;;;21.40;68.60;;;;;;5047569;28;20234;-62
2023/04/18 10:07:44;;;;;;;1.98;1.83;;;21.40;68.60;;;;;;5045390;28;20548;-62
2023/04/18 10:10:13;;;;;;;5.90;2.13;;;21.40;68.50;;;;;;5043499;28;20203;-62
2023/04/18 10:12:40;;;;;;;2.88;2.22;;;21.40;68.50;;;;;;5053817;28;20453;-62
2023/04/18 10:15:09;;;;;;;2.25;2.05;;;21.40;68.40;;;;;;5043906;28;20222;-62
2023/04/18 10:17:43;;;;;;;2.50;2.30;;;21.40;68.30;;;;;;5045216;28;20674;-62
2023/04/18 10:20:18;;;;;;;2.25;2.05;;;21.40;68.40;;;;;;5054937;28;20225;-62
2023/04/18 10:22:45;;;;;;;2.25;2.05;;;21.40;68.20;;;;;;5051431;28;20222;-63
2023/04/18 10:25:14;;;;;;;2.85;2.10;;;21.40;68.20;;;;;;5051819;28;20206;-62
2023/04/18 10:27:58;;;;;;;2.15;1.95;;;21.40;68.20;;;;;;5050007;28;20202;-62
2023/04/18 10:30:51;;;;;;;2.00;1.90;;;21.40;68.20;;;;;;5049993;28;20402;-62
2023/04/18 10:33:33;;;;;;;3.28;2.97;;;21.40;68.10;;;;;;5055124;28;20758;-61
2023/04/18 10:36:05;;;;;;;7.05;2.50;;;21.40;68.10;;;;;;5050679;28;20187;-58
2023/04/18 10:38:33;;;;;;;2.58;2.38;;;21.40;68.10;;;;;;5041263;28;20551;-63
2023/04/18 10:41:25;;;;;;;3.70;2.45;;;21.40;68.10;;;;;;5047639;28;20188;-60
2023/04/18 10:44:13;;;;;;;2.95;2.33;;;21.40;68.30;;;;;;5043502;28;20295;-62
2023/04/18 10:46:40;;;;;;;2.88;2.55;;;21.50;68.50;;;;;;5054300;28;20245;-57
2023/04/18 10:49:15;;;;;;;5.63;2.20;;;21.50;68.70;;;;;;5056549;28;20202;-57
2023/04/18 10:51:43;;;;;;;4.50;2.40;;;21.50;68.70;;;;;;5056899;28;20205;-57
2023/04/18 10:54:13;;;;;;;2.63;2.35;;;21.50;68.80;;;;;;5055058;28;20222;-55
2023/04/18 10:56:52;;;;;;;3.05;2.45;;;21.60;68.90;;;;;;5055751;28;20202;-57
2023/04/18 10:59:22;;;;;;;3.83;2.50;;;21.60;69.00;;;;;;5049344;28;20199;-58
2023/04/18 11:01:49;;;;;;;2.33;1.90;;;21.60;69.00;;;;;;5053459;28;20192;-56
2023/04/18 11:04:16;;;;;;;4.97;2.05;;;21.60;69.10;;;;;;5049328;28;20999;-56
2023/04/18 11:06:50;;;;;;;6.38;2.13;;;21.70;69.30;;;;;;5052029;28;20664;-59
2023/04/18 11:09:16;;;;;;;2.83;2.15;;;21.70;69.20;;;;;;5058193;28;20201;-56
2023/04/18 11:11:44;;;;;;;2.03;1.90;;;21.70;69.20;;;;;;5042396;28;20237;-60
2023/04/18 11:14:11;;;;;;;2.40;2.20;;;21.70;69.20;;;;;;5051687;28;20231;-57
2023/04/18 11:16:38;;;;;;;2.90;2.20;;;21.80;69.40;;;;;;5048959;28;20454;-60
2023/04/18 11:19:19;;;;;;;2.53;2.22;;;21.80;69.30;;;;;;5060194;28;20257;-56
2023/04/18 11:21:46;;;;;;;2.45;1.90;;;21.80;69.30;;;;;;5053984;28;20761;-60
2023/04/18 11:24:21;;;;;;;1.70;1.60;;;21.80;69.20;;;;;;5056128;28;20191;-57
2023/04/18 11:26:52;;;;;;;5.83;2.00;;;21.90;69.30;;;;;;5056722;28;20540;-56
2023/04/18 11:29:19;;;;;;;1.97;1.80;;;21.90;69.30;;;;;;5046506;28;21053;-59
2023/04/18 11:31:50;;;;;;;2.35;2.15;;;21.90;69.30;;;;;;5052684;28;20458;-62
2023/04/18 11:34:17;;;;;;;3.08;1.92;;;21.90;69.30;;;;;;5058342;28;20662;-63
2023/04/18 11:36:47;;;;;;;2.77;2.57;;;21.90;69.30;;;;;;5054264;28;20602;-64
2023/04/18 11:39:14;;;;;;;2.15;1.95;;;22.00;69.40;;;;;;5059941;28;20454;-54
2023/04/18 11:41:43;;;;;;;1.70;1.60;;;22.00;69.40;;;;;;5048401;28;20659;-62
2023/04/18 11:44:11;;;;;;;2.17;1.98;;;22.00;69.30;;;;;;5052820;28;20218;-62
2023/04/18 11:46:38;;;;;;;2.53;2.00;;;22.00;69.30;;;;;;5048939;28;20203;-62
2023/04/18 11:49:05;;;;;;;4.03;1.87;;;22.00;69.30;;;;;;5063639;28;20983;-61
2023/04/18 11:51:34;;;;;;;2.50;2.30;;;22.00;69.30;;;;;;5053743;28;20964;-64
2023/04/18 11:54:01;;;;;;;2.33;2.13;;;22.00;69.20;;;;;;5066593;28;20484;-64
2023/04/18 11:56:27;;;;;;;2.40;2.20;;;22.00;69.10;;;;;;5046315;28;20470;-64
2023/04/18 11:58:54;;;;;;;2.80;2.60;;;22.10;69.20;;;;;;5033983;28;20479;-64
2023/04/18 12:01:26;;;;;;;2.90;2.70;;;22.00;68.10;;;;;;5055880;28;20490;-65
2023/04/18 12:04:02;;;;;;;2.40;2.17;;;22.00;68.00;;;;;;5065802;28;20969;-65
2023/04/18 12:06:47;;;;;;;3.40;2.67;;;22.00;67.80;;;;;;5041179;28;20465;-64
2023/04/18 12:09:14;;;;;;;2.50;2.30;;;22.00;67.50;;;;;;5053101;28;20457;-64
2023/04/18 12:11:41;;;;;;;5.13;2.93;;;22.00;67.30;;;;;;5054120;28;20857;-66
2023/04/18 12:14:18;;;;;;;3.03;2.10;;;22.00;67.30;;;;;;5053801;28;20849;-69
2023/04/18 12:16:46;;;;;;;2.23;2.03;;;22.10;67.30;;;;;;5052001;28;20527;-67
2023/04/18 12:19:13;;;;;;;2.60;2.40;;;22.10;67.20;;;;;;5043327;28;20512;-67
2023/04/18 12:21:55;;;;;;;2.93;2.40;;;22.10;67.20;;;;;;5044915;28;20480;-66
2023/04/18 12:24:22;;;;;;;2.80;2.60;;;22.10;67.10;;;;;;5042438;28;20993;-65
2023/04/18 12:26:49;;;;;;;2.53;2.30;;;22.20;67.20;;;;;;5038123;28;20545;-65
2023/04/18 12:29:16;;;;;;;2.47;2.27;;;22.10;67.00;;;;;;5034618;28;20495;-64
2023/04/18 12:31:43;;;;;;;2.93;2.53;;;22.20;67.10;;;;;;5038059;28;20457;-63
2023/04/18 12:34:11;;;;;;;3.03;2.70;;;22.20;67.20;;;;;;5027822;28;20657;-62
2023/04/18 12:36:37;;;;;;;2.03;1.93;;;22.20;67.20;;;;;;5030153;28;20462;-63
2023/04/18 12:39:04;;;;;;;2.30;2.10;;;22.20;67.10;;;;;;5039383;28;20986;-61
2023/04/18 12:41:31;;;;;;;3.80;2.43;;;22.20;67.30;;;;;;5048361;28;20468;-61
2023/04/18 12:43:58;;;;;;;2.33;2.13;;;22.30;67.40;;;;;;5044227;28;20470;-61
2023/04/18 12:46:25;;;;;;;2.53;2.33;;;22.30;67.40;;;;;;5045828;28;20466;-61
2023/04/18 12:48:52;;;;;;;2.20;2.00;;;22.30;67.40;;;;;;5050526;28;20457;-61
2023/04/18 12:51:20;;;;;;;2.63;2.40;;;22.30;67.50;;;;;;5058842;28;20454;-59
2023/04/18 12:53:47;;;;;;;2.40;2.20;;;22.40;67.60;;;;;;5059996;28;20476;-59